createdAt,value
2022-08-01T00:00:04.704Z,2.78
2022-08-01T00:02:32.148Z,3.22
2022-08-01T00:04:59.150Z,4.05
2022-08-01T00:07:25.667Z,2.95
2022-08-01T00:09:52.326Z,2.80
2022-08-01T00:12:18.748Z,3.25
2022-08-01T00:14:45.257Z,3.22
2022-08-01T00:17:11.674Z,4.20
2022-08-01T00:19:38.158Z,3.13
2022-08-01T00:22:04.921Z,2.75
2022-08-01T00:24:31.604Z,3.53
2022-08-01T00:26:58.035Z,2.85
2022-08-01T00:30:11.356Z,2.70
2022-08-01T00:32:11.188Z,3.92
2022-08-01T00:34:37.742Z,2.70
2022-08-01T00:37:04.178Z,3.00
2022-08-01T00:39:30.788Z,3.22
2022-08-01T00:41:59.402Z,3.03
2022-08-01T00:44:26.980Z,2.95
2022-08-01T00:46:53.858Z,3.35
2022-08-01T00:49:20.363Z,2.35
2022-08-01T00:51:46.990Z,2.45
2022-08-01T00:54:13.740Z,2.50
2022-08-01T00:56:44.309Z,2.60
2022-08-01T00:59:14.054Z,2.95
2022-08-01T01:01:46.535Z,2.72
2022-08-01T01:04:14.123Z,2.75
2022-08-01T01:07:08.153Z,2.50
2022-08-01T01:09:58.633Z,3.65
2022-08-01T01:12:41.639Z,2.80
2022-08-01T01:15:16.557Z,2.15
2022-08-01T01:17:52.179Z,2.20
2022-08-01T01:20:24.155Z,2.33
2022-08-01T01:22:53.726Z,3.60
2022-08-01T01:25:38.469Z,1.70
2022-08-01T01:28:20.429Z,1.75
2022-08-01T01:30:53.356Z,1.80
2022-08-01T01:33:21.722Z,3.30
2022-08-01T01:35:55.459Z,2.25
2022-08-01T01:38:27.410Z,2.25
2022-08-01T01:40:56.727Z,2.72
2022-08-01T01:43:28.716Z,2.15
2022-08-01T01:46:02.384Z,2.00
2022-08-01T01:48:29.935Z,2.53
2022-08-01T01:50:57.666Z,2.88
2022-08-01T01:53:25.792Z,4.13
2022-08-01T01:55:54.460Z,3.10
2022-08-01T01:58:22.073Z,2.88
2022-08-01T02:00:50.610Z,3.65
2022-08-01T02:03:19.131Z,2.72
2022-08-01T02:05:47.576Z,3.17
2022-08-01T02:08:17.309Z,3.70
2022-08-01T02:11:06.195Z,3.00
2022-08-01T02:13:35.197Z,5.70
2022-08-01T02:16:03.887Z,2.85
2022-08-01T02:18:31.154Z,2.72
2022-08-01T02:20:59.739Z,4.70
2022-08-01T02:23:33.487Z,2.88
2022-08-01T02:26:09.846Z,4.00
2022-08-01T02:29:06.712Z,2.83
2022-08-01T02:31:39.534Z,4.63
2022-08-01T02:34:10.371Z,2.58
2022-08-01T02:36:38.535Z,2.58
2022-08-01T02:39:10.039Z,3.60
2022-08-01T02:41:40.976Z,2.67
2022-08-01T02:44:10.202Z,2.50
2022-08-01T02:46:57.412Z,2.55
2022-08-01T02:49:27.133Z,3.22
2022-08-01T02:51:55.674Z,2.75
2022-08-01T02:54:23.751Z,2.40
2022-08-01T02:56:52.303Z,2.53
2022-08-01T02:59:22.419Z,3.45
2022-08-01T03:01:51.136Z,2.83
2022-08-01T03:04:19.705Z,2.38
2022-08-01T03:06:47.930Z,5.72
2022-08-01T03:09:16.670Z,2.67
2022-08-01T03:11:45.153Z,2.75
2022-08-01T03:14:12.973Z,5.13
2022-08-01T03:16:42.916Z,2.72
2022-08-01T03:19:11.944Z,2.50
2022-08-01T03:21:42.367Z,5.05
2022-08-01T03:24:11.042Z,3.70
2022-08-01T03:26:39.617Z,3.00
2022-08-01T03:29:10.746Z,4.80
2022-08-01T03:31:39.183Z,2.78
2022-08-01T03:34:06.830Z,3.15
2022-08-01T03:36:38.367Z,4.25
2022-08-01T03:39:09.318Z,3.08
2022-08-01T03:41:41.789Z,3.13
2022-08-01T03:44:16.209Z,3.20
2022-08-01T03:46:54.887Z,2.75
2022-08-01T03:49:26.735Z,3.53
2022-08-01T03:51:54.358Z,2.97
2022-08-01T03:54:28.104Z,2.63
2022-08-01T03:56:55.562Z,3.20
2022-08-01T03:59:22.880Z,2.63
2022-08-01T04:01:50.182Z,2.83
2022-08-01T04:04:17.130Z,3.45
2022-08-01T04:06:45.806Z,2.97
2022-08-01T04:09:15.729Z,3.00
2022-08-01T04:11:42.580Z,2.90
2022-08-01T04:14:09.552Z,4.32
2022-08-01T04:16:36.289Z,2.97
2022-08-01T04:19:03.589Z,3.13
2022-08-01T04:21:33.396Z,3.15
2022-08-01T04:24:06.296Z,3.40
2022-08-01T04:26:35.253Z,3.58
2022-08-01T04:29:03.577Z,3.95
2022-08-01T04:31:31.589Z,3.72
2022-08-01T04:34:02.910Z,4.13
2022-08-01T04:36:31.936Z,3.60
2022-08-01T04:39:01.067Z,4.85
2022-08-01T04:41:28.000Z,3.50
2022-08-01T04:43:55.986Z,3.58
2022-08-01T04:46:23.545Z,3.58
2022-08-01T04:48:51.059Z,3.63
2022-08-01T04:51:18.705Z,3.47
2022-08-01T04:53:46.734Z,3.25
2022-08-01T04:56:14.240Z,3.50
2022-08-01T04:58:42.089Z,4.45
2022-08-01T05:01:09.348Z,4.18
2022-08-01T05:03:38.966Z,3.00
2022-08-01T05:06:06.617Z,5.13
2022-08-01T05:08:33.052Z,3.42
2022-08-01T05:10:59.722Z,4.80
2022-08-01T05:13:26.606Z,3.95
2022-08-01T05:15:53.570Z,3.40
2022-08-01T05:18:27.882Z,4.35
2022-08-01T05:20:55.038Z,3.55
2022-08-01T05:23:24.878Z,3.15
2022-08-01T05:26:08.916Z,3.05
2022-08-01T05:28:36.118Z,3.67
2022-08-01T05:31:03.846Z,2.97
2022-08-01T05:33:30.351Z,2.80
2022-08-01T05:35:56.787Z,3.38
2022-08-01T05:38:23.389Z,2.95
2022-08-01T05:40:49.947Z,3.28
2022-08-01T05:43:16.448Z,3.47
2022-08-01T05:45:42.852Z,2.97
2022-08-01T05:48:09.300Z,2.10
2022-08-01T05:50:35.811Z,3.05
2022-08-01T05:53:02.395Z,3.42
2022-08-01T05:55:29.034Z,3.63
2022-08-01T05:57:56.739Z,3.53
2022-08-01T06:00:23.356Z,3.58
2022-08-01T06:02:49.808Z,2.83
2022-08-01T06:05:16.796Z,2.22
2022-08-01T06:07:43.415Z,2.20
2022-08-01T06:10:10.530Z,1.70
2022-08-01T06:12:37.613Z,3.05
2022-08-01T06:15:07.497Z,2.47
2022-08-01T06:17:34.273Z,1.85
2022-08-01T06:20:00.762Z,1.50
2022-08-01T06:22:27.628Z,2.13
2022-08-01T06:24:54.506Z,3.88
2022-08-01T06:27:21.600Z,0.90
2022-08-01T06:29:50.437Z,1.52
2022-08-01T06:32:26.199Z,0.95
2022-08-01T06:34:53.917Z,0.93
2022-08-01T06:37:20.774Z,1.20
2022-08-01T06:39:47.657Z,0.70
2022-08-01T06:42:15.767Z,1.08
2022-08-01T06:44:42.353Z,0.88
2022-08-01T06:47:08.865Z,4.30
2022-08-01T06:49:35.883Z,2.20
2022-08-01T06:52:02.521Z,1.10
2022-08-01T06:54:29.036Z,3.17
2022-08-01T06:56:55.492Z,1.70
2022-08-01T06:59:22.063Z,1.23
2022-08-01T07:01:48.530Z,1.65
2022-08-01T07:04:15.021Z,2.92
2022-08-01T07:06:41.446Z,1.65
2022-08-01T07:09:12.252Z,1.13
2022-08-01T07:11:40.840Z,3.72
2022-08-01T07:14:07.305Z,3.20
2022-08-01T07:16:33.900Z,3.25
2022-08-01T07:19:00.423Z,2.53
2022-08-01T07:21:40.369Z,1.48
2022-08-01T07:24:14.539Z,0.70
2022-08-01T07:26:54.087Z,0.85
2022-08-01T07:29:27.476Z,1.90
2022-08-01T07:31:55.814Z,0.82
2022-08-01T07:34:23.689Z,1.05
2022-08-01T07:36:50.379Z,0.80
2022-08-01T07:39:17.074Z,1.52
2022-08-01T07:41:53.195Z,0.80
2022-08-01T07:44:30.047Z,2.05
2022-08-01T07:46:56.612Z,2.05
2022-08-01T07:49:23.122Z,0.75
2022-08-01T07:52:13.581Z,1.38
2022-08-01T07:54:36.794Z,0.95
2022-08-01T07:57:04.152Z,0.80
2022-08-01T07:59:31.282Z,2.05
2022-08-01T08:01:58.007Z,2.30
2022-08-01T08:04:24.573Z,1.15
2022-08-01T08:06:51.074Z,2.15
2022-08-01T08:09:17.872Z,0.82
2022-08-01T08:11:47.844Z,1.00
2022-08-01T08:14:18.261Z,0.70
2022-08-01T08:16:44.901Z,0.80
2022-08-01T08:19:12.329Z,1.65
2022-08-01T08:21:39.139Z,2.30
2022-08-01T08:24:26.960Z,2.38
2022-08-01T08:26:56.983Z,1.00
2022-08-01T08:29:24.155Z,1.27
2022-08-01T08:31:52.987Z,1.85
2022-08-01T08:34:20.386Z,1.05
2022-08-01T08:36:48.230Z,1.73
2022-08-01T08:39:16.548Z,1.52
2022-08-01T08:41:46.063Z,2.05
2022-08-01T08:44:17.258Z,2.10
2022-08-01T08:46:49.711Z,3.22
2022-08-01T08:49:19.780Z,1.90
2022-08-01T08:51:49.888Z,1.10
2022-08-01T08:54:17.409Z,2.58
2022-08-01T08:56:45.322Z,1.92
2022-08-01T08:59:16.483Z,1.88
2022-08-01T09:01:43.786Z,2.28
2022-08-01T09:04:11.198Z,2.05
2022-08-01T09:06:38.489Z,1.20
2022-08-01T09:09:06.744Z,1.58
2022-08-01T09:11:34.905Z,1.95
2022-08-01T09:14:07.558Z,1.15
2022-08-01T09:16:35.917Z,0.90
2022-08-01T09:19:16.377Z,1.42
2022-08-01T09:22:04.432Z,1.08
2022-08-01T09:24:32.696Z,2.38
2022-08-01T09:26:59.915Z,2.22
2022-08-01T09:29:38.338Z,0.98
2022-08-01T09:32:08.561Z,1.67
2022-08-01T09:34:42.725Z,1.38
2022-08-01T09:37:10.607Z,1.02
2022-08-01T09:39:41.145Z,0.70
2022-08-01T09:42:28.672Z,1.42
2022-08-01T09:44:56.283Z,0.80
2022-08-01T09:47:23.620Z,1.23
2022-08-01T09:49:56.361Z,0.98
2022-08-01T09:52:29.111Z,1.63
2022-08-01T09:55:04.008Z,1.55
2022-08-01T09:57:31.097Z,0.90
2022-08-01T10:00:02.238Z,0.85
2022-08-01T10:02:41.025Z,2.47
2022-08-01T10:05:10.207Z,3.58
2022-08-01T10:07:55.375Z,1.65
2022-08-01T10:10:28.670Z,2.50
2022-08-01T10:12:57.846Z,0.95
2022-08-01T10:15:37.334Z,2.10
2022-08-01T10:18:16.494Z,1.00
2022-08-01T10:20:53.000Z,2.38
2022-08-01T10:23:40.722Z,1.10
2022-08-01T10:26:09.285Z,2.03
2022-08-01T10:28:39.295Z,3.03
2022-08-01T10:31:14.415Z,0.98
2022-08-01T10:33:51.865Z,1.05
2022-08-01T10:36:25.423Z,1.20
2022-08-01T10:38:53.615Z,1.17
2022-08-01T10:41:21.887Z,0.75
2022-08-01T10:43:48.626Z,0.70
2022-08-01T10:46:18.397Z,1.52
2022-08-01T10:49:01.834Z,0.77
2022-08-01T10:51:52.255Z,1.55
2022-08-01T10:54:15.548Z,1.58
2022-08-01T10:56:48.684Z,1.08
2022-08-01T10:59:50.224Z,1.40
2022-08-01T11:02:09.077Z,0.60
2022-08-01T11:04:55.033Z,0.65
2022-08-01T11:07:45.617Z,1.75
2022-08-01T11:10:35.061Z,0.60
2022-08-01T11:13:04.420Z,0.60
2022-08-01T11:15:31.641Z,1.63
2022-08-01T11:18:00.922Z,0.77
2022-08-01T11:20:34.197Z,2.20
2022-08-01T11:23:05.966Z,0.88
2022-08-01T11:26:03.031Z,1.13
2022-08-01T11:28:30.189Z,0.82
2022-08-01T11:31:07.841Z,0.68
2022-08-01T11:33:41.213Z,0.80
2022-08-01T11:36:14.508Z,1.02
2022-08-01T11:38:46.929Z,1.88
2022-08-01T11:41:14.453Z,1.20
2022-08-01T11:44:00.530Z,1.05
2022-08-01T11:46:57.792Z,2.00
2022-08-01T11:49:33.794Z,1.55
2022-08-01T11:52:04.224Z,1.73
2022-08-01T11:54:38.128Z,1.33
2022-08-01T11:57:07.396Z,0.90
2022-08-01T12:00:03.632Z,1.33
2022-08-01T12:02:38.723Z,2.38
2022-08-01T12:05:12.082Z,1.48
2022-08-01T12:07:42.176Z,1.25
2022-08-01T12:10:14.184Z,1.75
2022-08-01T12:12:46.342Z,1.20
2022-08-01T12:15:13.975Z,1.95
2022-08-01T12:17:58.459Z,1.40
2022-08-01T12:20:32.103Z,1.25
2022-08-01T12:23:02.008Z,2.05
2022-08-01T12:25:28.857Z,1.25
2022-08-01T12:27:56.832Z,0.95
2022-08-01T12:30:25.266Z,2.85
2022-08-01T12:32:54.564Z,0.90
2022-08-01T12:35:24.244Z,1.10
2022-08-01T12:37:56.383Z,1.02
2022-08-01T12:40:36.685Z,1.10
2022-08-01T12:43:07.139Z,0.88
2022-08-01T12:45:40.616Z,0.73
2022-08-01T12:48:21.468Z,1.73
2022-08-01T12:50:50.715Z,0.70
2022-08-01T12:53:19.468Z,0.70
2022-08-01T12:55:58.551Z,0.70
2022-08-01T12:58:32.277Z,0.70
2022-08-01T13:01:10.157Z,0.70
2022-08-01T13:03:37.171Z,0.82
2022-08-01T13:06:13.254Z,0.75
2022-08-01T13:08:39.911Z,1.30
2022-08-01T13:11:15.335Z,0.70
2022-08-01T13:13:50.598Z,0.70
2022-08-01T13:16:31.213Z,2.15
2022-08-01T13:19:07.122Z,0.70
2022-08-01T13:21:54.197Z,1.52
2022-08-01T13:24:29.399Z,0.70
2022-08-01T13:27:04.949Z,0.82
2022-08-01T13:29:40.943Z,1.55
2022-08-01T13:32:29.702Z,0.60
2022-08-01T13:35:08.564Z,1.88
2022-08-01T13:37:37.073Z,1.05
2022-08-01T13:40:05.343Z,0.70
2022-08-01T13:42:32.835Z,1.02
2022-08-01T13:44:59.248Z,0.60
2022-08-01T13:47:31.721Z,0.73
2022-08-01T13:50:03.589Z,0.70
2022-08-01T13:52:31.599Z,0.50
2022-08-01T13:54:58.628Z,0.73
2022-08-01T13:57:25.078Z,0.65
2022-08-01T13:59:52.473Z,2.25
2022-08-01T14:02:20.544Z,1.60
2022-08-01T14:04:47.469Z,1.25
2022-08-01T14:07:15.066Z,2.70
2022-08-01T14:10:04.572Z,0.98
2022-08-01T14:12:29.793Z,0.73
2022-08-01T14:14:57.253Z,2.50
2022-08-01T14:17:23.980Z,2.03
2022-08-01T14:19:50.476Z,0.85
2022-08-01T14:22:17.059Z,1.67
2022-08-01T14:24:43.487Z,1.02
2022-08-01T14:27:11.078Z,1.08
2022-08-01T14:30:01.198Z,1.33
2022-08-01T14:32:28.587Z,2.00
2022-08-01T14:34:55.763Z,1.40
2022-08-01T14:37:22.307Z,0.68
2022-08-01T14:39:56.143Z,1.25
2022-08-01T14:42:22.717Z,0.68
2022-08-01T14:44:49.799Z,0.57
2022-08-01T14:47:22.074Z,1.75
2022-08-01T14:49:49.820Z,1.63
2022-08-01T14:52:16.673Z,1.58
2022-08-01T14:54:43.310Z,0.70
2022-08-01T14:57:09.880Z,1.83
2022-08-01T14:59:36.854Z,0.85
2022-08-01T15:02:04.100Z,0.60
2022-08-01T15:04:31.428Z,3.45
2022-08-01T15:06:57.975Z,2.40
2022-08-01T15:09:24.387Z,2.67
2022-08-01T15:11:50.863Z,1.95
2022-08-01T15:14:36.146Z,0.70
2022-08-01T15:17:02.808Z,0.82
2022-08-01T15:19:29.518Z,1.10
2022-08-01T15:21:55.954Z,0.80
2022-08-01T15:24:22.426Z,2.47
2022-08-01T15:26:48.936Z,2.10
2022-08-01T15:29:16.723Z,1.95
2022-08-01T15:31:44.773Z,1.20
2022-08-01T15:34:11.770Z,1.42
2022-08-01T15:36:38.230Z,2.95
2022-08-01T15:39:09.680Z,0.75
2022-08-01T15:41:36.124Z,1.88
2022-08-01T15:44:02.712Z,2.03
2022-08-01T15:46:29.521Z,0.77
2022-08-01T15:48:56.096Z,2.20
2022-08-01T15:51:23.729Z,1.25
2022-08-01T15:53:50.139Z,1.15
2022-08-01T15:56:16.568Z,0.52
2022-08-01T15:58:43.184Z,2.72
2022-08-01T16:01:09.685Z,1.33
2022-08-01T16:03:36.105Z,1.30
2022-08-01T16:06:02.671Z,1.17
2022-08-01T16:08:29.122Z,3.03
2022-08-01T16:10:55.647Z,1.55
2022-08-01T16:13:22.154Z,1.13
2022-08-01T16:15:48.613Z,0.50
2022-08-01T16:18:16.022Z,2.03
2022-08-01T16:20:45.710Z,1.60
2022-08-01T16:23:13.937Z,3.08
2022-08-01T16:25:40.754Z,1.25
2022-08-01T16:28:07.322Z,3.60
2022-08-01T16:30:33.931Z,2.83
2022-08-01T16:33:04.810Z,0.98
2022-08-01T16:35:36.446Z,4.20
2022-08-01T16:38:04.690Z,1.65
2022-08-01T16:40:31.726Z,2.47
2022-08-01T16:43:16.391Z,1.20
2022-08-01T16:45:43.371Z,1.80
2022-08-01T16:48:12.368Z,1.92
2022-08-01T16:50:39.404Z,2.00
2022-08-01T16:53:05.876Z,3.00
2022-08-01T16:55:49.631Z,1.52
2022-08-01T16:58:27.829Z,0.77
2022-08-01T17:01:53.522Z,1.52
2022-08-01T17:03:52.430Z,1.33
2022-08-01T17:06:22.403Z,0.75
2022-08-01T17:08:49.847Z,2.05
2022-08-01T17:11:16.706Z,0.80
2022-08-01T17:13:43.690Z,1.00
2022-08-01T17:16:11.083Z,1.77
2022-08-01T17:18:37.792Z,1.05
2022-08-01T17:21:04.237Z,6.97
2022-08-01T17:23:31.746Z,4.45
2022-08-01T17:25:58.849Z,2.50
2022-08-01T17:28:26.087Z,2.53
2022-08-01T17:30:52.531Z,2.85
2022-08-01T17:33:20.556Z,0.40
2022-08-01T17:35:47.121Z,2.15
2022-08-01T17:38:13.608Z,2.47
2022-08-01T17:40:41.116Z,1.58
2022-08-01T17:43:08.495Z,0.95
2022-08-01T17:45:39.389Z,0.68
2022-08-01T17:48:17.803Z,1.92
2022-08-01T17:50:45.316Z,0.60
2022-08-01T17:53:12.864Z,0.70
2022-08-01T17:55:56.079Z,0.60
2022-08-01T17:58:51.346Z,2.33
2022-08-01T18:01:16.134Z,0.85
2022-08-01T18:03:43.453Z,0.65
2022-08-01T18:06:13.611Z,1.17
2022-08-01T18:08:41.818Z,1.77
2022-08-01T18:11:09.254Z,0.40
2022-08-01T18:13:36.539Z,0.50
2022-08-01T18:16:08.817Z,0.80
2022-08-01T18:18:35.571Z,0.75
2022-08-01T18:21:02.961Z,1.67
2022-08-01T18:23:29.655Z,3.50
2022-08-01T18:25:56.219Z,2.28
2022-08-01T18:28:33.761Z,1.42
2022-08-01T18:31:03.650Z,1.70
2022-08-01T18:33:30.312Z,0.82
2022-08-01T18:36:01.871Z,0.60
2022-08-01T18:38:32.805Z,0.70
2022-08-01T18:41:00.958Z,0.98
2022-08-01T18:43:28.110Z,0.80
2022-08-01T18:45:57.111Z,2.33
2022-08-01T18:48:24.423Z,3.13
2022-08-01T18:50:50.962Z,1.40
2022-08-01T18:53:18.635Z,1.58
2022-08-01T18:55:45.268Z,0.68
2022-08-01T18:58:11.790Z,2.35
2022-08-01T19:00:39.678Z,1.10
2022-08-01T19:03:06.310Z,1.58
2022-08-01T19:05:34.872Z,1.85
2022-08-01T19:08:06.194Z,3.88
2022-08-01T19:10:39.181Z,2.22
2022-08-01T19:13:06.236Z,2.88
2022-08-01T19:15:32.744Z,4.18
2022-08-01T19:17:59.907Z,2.22
2022-08-01T19:20:28.068Z,2.33
2022-08-01T19:22:55.335Z,3.20
2022-08-01T19:25:22.617Z,2.72
2022-08-01T19:27:50.395Z,4.18
2022-08-01T19:30:18.727Z,4.28
2022-08-01T19:32:46.919Z,4.32
2022-08-01T19:35:16.599Z,4.20
2022-08-01T19:37:46.890Z,3.03
2022-08-01T19:40:26.256Z,3.03
2022-08-01T19:42:55.754Z,4.65
2022-08-01T19:45:22.565Z,2.53
2022-08-01T19:47:56.198Z,3.95
2022-08-01T19:50:28.607Z,2.88
2022-08-01T19:53:03.109Z,3.40
2022-08-01T19:55:39.277Z,2.95
2022-08-01T19:58:26.409Z,4.38
2022-08-01T20:00:54.530Z,3.67
2022-08-01T20:03:22.325Z,4.57
2022-08-01T20:05:50.599Z,2.90
2022-08-01T20:08:20.661Z,3.90
2022-08-01T20:10:48.358Z,4.60
2022-08-01T20:13:16.029Z,3.38
2022-08-01T20:15:43.156Z,5.15
2022-08-01T20:18:09.905Z,2.20
2022-08-01T20:20:38.031Z,2.95
2022-08-01T20:23:10.552Z,3.95
2022-08-01T20:25:48.186Z,2.85
2022-08-01T20:28:15.979Z,2.92
2022-08-01T20:30:43.826Z,2.50
2022-08-01T20:33:12.154Z,2.42
2022-08-01T20:35:52.382Z,2.78
2022-08-01T20:38:27.643Z,3.33
2022-08-01T20:40:58.795Z,2.45
2022-08-01T20:43:27.410Z,2.85
2022-08-01T20:45:55.675Z,3.45
2022-08-01T20:48:25.710Z,2.80
2022-08-01T20:51:11.254Z,3.13
2022-08-01T20:53:41.939Z,2.85
2022-08-01T20:56:20.719Z,2.85
2022-08-01T20:59:55.379Z,3.42
2022-08-01T21:02:09.381Z,4.95
2022-08-01T21:04:57.029Z,4.63
2022-08-01T21:07:38.417Z,3.35
2022-08-01T21:10:08.329Z,3.70
2022-08-01T21:13:00.794Z,5.30
2022-08-01T21:16:04.167Z,4.75
2022-08-01T21:18:37.862Z,3.88
2022-08-01T21:21:17.386Z,4.82
2022-08-01T21:24:00.391Z,6.00
2022-08-01T21:26:27.154Z,3.47
2022-08-01T21:28:55.824Z,3.47
2022-08-01T21:31:25.002Z,4.05
2022-08-01T21:34:02.789Z,3.30
2022-08-01T21:36:30.971Z,5.15
2022-08-01T21:38:58.620Z,4.32
2022-08-01T21:41:56.765Z,4.00
2022-08-01T21:44:16.015Z,3.55
2022-08-01T21:46:43.071Z,3.42
2022-08-01T21:49:10.291Z,4.32
2022-08-01T21:51:51.927Z,3.33
2022-08-01T21:54:34.753Z,3.92
2022-08-01T21:57:15.725Z,4.10
2022-08-01T22:00:02.655Z,3.15
2022-08-01T22:03:00.358Z,3.75
2022-08-01T22:05:49.682Z,4.40
2022-08-01T22:08:23.768Z,3.47
2022-08-01T22:10:57.696Z,3.70
2022-08-01T22:13:24.342Z,3.38
2022-08-01T22:15:52.195Z,4.57
2022-08-01T22:18:19.025Z,3.47
2022-08-01T22:20:47.180Z,3.20
2022-08-01T22:23:14.468Z,3.17
2022-08-01T22:25:41.607Z,9.55
2022-08-01T22:28:10.212Z,13.13
2022-08-01T22:30:41.902Z,10.27
2022-08-01T22:33:17.022Z,10.52
2022-08-01T22:35:46.608Z,7.35
2022-08-01T22:38:13.256Z,11.13
2022-08-01T22:40:49.393Z,6.28
2022-08-01T22:43:25.155Z,5.28
2022-08-01T22:46:07.203Z,5.28
2022-08-01T22:48:44.794Z,7.25
2022-08-01T22:51:55.154Z,3.38
2022-08-01T22:54:34.031Z,3.40
2022-08-01T22:57:07.180Z,5.25
2022-08-01T22:59:46.046Z,4.30
2022-08-01T23:02:16.606Z,3.45
2022-08-01T23:04:46.314Z,4.20
2022-08-01T23:07:19.313Z,3.85
2022-08-01T23:09:54.334Z,3.45
2022-08-01T23:12:23.914Z,4.45
2022-08-01T23:14:53.606Z,5.25
2022-08-01T23:17:27.688Z,3.35
2022-08-01T23:20:06.776Z,4.57
2022-08-01T23:22:36.284Z,4.40
2022-08-01T23:25:06.926Z,4.68
2022-08-01T23:28:04.381Z,3.63
2022-08-01T23:30:31.256Z,3.55
2022-08-01T23:32:58.150Z,4.25
2022-08-01T23:35:26.411Z,12.05
2022-08-01T23:37:53.221Z,3.80
2022-08-01T23:40:20.537Z,4.93
2022-08-01T23:42:47.223Z,3.80
2022-08-01T23:45:13.947Z,3.20
2022-08-01T23:47:40.467Z,3.50
2022-08-01T23:50:08.550Z,3.72
2022-08-01T23:52:36.783Z,3.58
2022-08-01T23:55:15.901Z,3.42
2022-08-01T23:57:42.724Z,3.33
